Nichioh Maru — JD3267 — position and weather

sailwx.info

Track history (hours):
 
Tides and Currents Weather Stations Pressure Air Temp Water Temp Dewpoint Dewpoint Depression Visibility Wind Speed Wind Dir Waves Ship Positions

Nichioh Maru

Last reported at 2015-May-23 11:33 UTC. Time now 2015-May-23 11:52 UTC.
Position N 35°19' E 139°43'.

Length 170 m; draft 6.5 m.

Type: Cargo ship. MMSI: 431003232.

Date/timePositionNaut miles runAvg speedWind from/ knotsBaromVisibWave heightAir tempDewpointWater temp
2015-May-23 11:33N 35°19' E 139°43'1211.9
2015-May-23 10:33N 35°30' E 139°47'1 1.0
2015-May-23 09:31N 35°30' E 139°46'0 0.0
2015-May-23 08:31N 35°30' E 139°46'0 0.0
2015-May-23 07:31N 35°30' E 139°46'0 0.0
2015-May-23 06:31N 35°30' E 139°46'0 0.0
2015-May-23 05:31N 35°30' E 139°46'0 0.0
2015-May-23 04:31N 35°30' E 139°46'6 5.8
2015-May-23 03:34N 35°25' E 139°46'8 8.2
2015-May-23 02:32N 35°19' E 139°39'0 0.0
2015-May-23 01:32N 35°19' E 139°39'0 0.0
2015-May-23 00:32N 35°19' E 139°39'0 0.0
2015-May-22 23:32N 35°19' E 139°39'3 2.9
2015-May-22 22:34N 35°19' E 139°42'1110.7
2015-May-22 21:34N 35°08' E 139°46'2114.3
2015-May-22 20:07N 34°54' E 139°28'915.4
2015-May-22 19:33N 34°49' E 139°19'22115.7
2015-May-22 05:27N 33°56' E 134°59'1719.2
2015-May-22 04:33N 34°13' E 134°59'1818.0
2015-May-22 03:33N 34°29' E 135°09'1211.9
2015-May-22 02:33N 34°41' E 135°13'0 0.0
2015-May-22 01:25N 34°41' E 135°13'0 0.0
2015-May-22 00:31N 34°41' E 135°13'0 0.0
2015-May-21 23:31N 34°41' E 135°13'1 1.4
2015-May-21 22:33N 34°40' E 135°15'4 3.5
2015-May-21 21:30N 34°37' E 135°16'0 0.0
2015-May-21 20:30N 34°37' E 135°16'0 0.0
2015-May-21 19:30N 34°37' E 135°16'0 0.0
2015-May-21 18:30N 34°37' E 135°16'0 0.0
2015-May-21 17:30N 34°37' E 135°16'0 0.0
2015-May-21 16:30N 34°37' E 135°16'0 0.0
2015-May-21 15:30N 34°37' E 135°16'0 0.0
2015-May-21 14:30N 34°37' E 135°16'0 0.0
2015-May-21 13:18N 34°37' E 135°16'0 0.0
2015-May-21 12:30N 34°37' E 135°16'0 0.0
2015-May-21 11:27N 34°37' E 135°16'0 0.0
2015-May-21 10:33N 34°37' E 135°16'0 0.0
2015-May-21 09:27N 34°37' E 135°16'0 0.0
2015-May-21 08:33N 34°37' E 135°16'0 0.0
2015-May-21 07:27N 34°37' E 135°16'1214.0
2015-May-21 06:34N 34°37' E 135°01'  
2015-May-18 04:31N 34°37' E 135°01'9 9.2
2015-May-18 03:33N 34°36' E 135°12'5 4.2
2015-May-18 02:28N 34°41' E 135°13'0 0.0
2015-May-18 01:10N 34°41' E 135°13'0 0.0
2015-May-18 00:22N 34°41' E 135°13'0 0.0
2015-May-17 23:28N 34°41' E 135°13'2 1.9
2015-May-17 22:33N 34°40' E 135°15'1313.2
2015-May-17 21:33N 34°28' E 135°09'1716.8
2015-May-17 20:33N 34°13' E 134°60'174 6.0
2015-May-16 15:29N 34°33' E 138°29'5315.9
2015-May-16 12:07N 34°58' E 139°26'1117.8
2015-May-16 11:31N 35°04' E 139°37'1414.4
2015-May-16 10:33N 35°15' E 139°46'1211.8
2015-May-16 09:34N 35°27' E 139°46'3 3.0
2015-May-16 08:31N 35°30' E 139°46'0 0.0
2015-May-16 07:31N 35°30' E 139°46'0 0.0
2015-May-16 06:31N 35°30' E 139°46'0 0.0
2015-May-16 05:31N 35°30' E 139°46'0 0.0
2015-May-16 04:33N 35°30' E 139°46'7 7.2
2015-May-16 03:33N 35°23' E 139°46'7 7.1
2015-May-16 02:33N 35°19' E 139°39'0 0.0
2015-May-16 01:33N 35°19' E 139°39'0 0.0
2015-May-16 00:33N 35°19' E 139°39'0 0.0
2015-May-15 23:33N 35°19' E 139°39'0 0.0
2015-May-15 22:33N 35°19' E 139°39'3 3.0
2015-May-15 21:34N 35°18' E 139°43'9 9.1
2015-May-15 20:33N 35°10' E 139°46'1515.4
2015-May-15 19:33N 34°58' E 139°34'23416.6
2015-May-15 05:29N 34°02' E 134°59'1818.9
2015-May-15 04:32N 34°20' E 134°59'1919.3
2015-May-15 03:33N 34°34' E 135°14'7 6.1
2015-May-15 02:28N 34°41' E 135°13'0 0.0
2015-May-15 01:28N 34°41' E 135°13'0 0.0
2015-May-15 00:28N 34°41' E 135°13'0 0.0
2015-May-14 23:28N 34°41' E 135°13'1 1.4
2015-May-14 22:33N 34°40' E 135°15'4 3.5
2015-May-14 21:30N 34°37' E 135°16'0 0.0
2015-May-14 20:33N 34°37' E 135°16'0 0.0
2015-May-14 19:24N 34°37' E 135°16'0 0.0
2015-May-14 18:18N 34°37' E 135°16'0 0.0
2015-May-14 17:33N 34°37' E 135°16'0 0.0
2015-May-14 16:30N 34°37' E 135°16'0 0.0
2015-May-14 15:24N 34°37' E 135°16'0 0.0
2015-May-14 14:30N 34°37' E 135°16'0 0.0
2015-May-14 13:30N 34°37' E 135°16'3 2.7
2015-May-14 12:33N 34°36' E 135°13'1818.4
2015-May-14 11:33N 34°34' E 134°51'  
Track history (hours):
 
Tides and Currents Weather Stations Pressure Air Temp Water Temp Dewpoint Dewpoint Depression Visibility Wind Speed Wind Dir Waves Ship Positions

Nichioh Maru

Last reported at 2015-May-23 11:33 UTC. Time now 2015-May-23 11:52 UTC.
Position N 35°19' E 139°43'.

Length 170 m; draft 6.5 m.

Type: Cargo ship. MMSI: 431003232.

Date/timePositionNaut miles runAvg speedWind from/ knotsBaromVisibWave heightAir tempDewpointWater temp
2015-May-23 11:33N 35°19' E 139°43'1211.9
2015-May-23 10:33N 35°30' E 139°47'1 1.0
2015-May-23 09:31N 35°30' E 139°46'0 0.0
2015-May-23 08:31N 35°30' E 139°46'0 0.0
2015-May-23 07:31N 35°30' E 139°46'0 0.0
2015-May-23 06:31N 35°30' E 139°46'0 0.0
2015-May-23 05:31N 35°30' E 139°46'0 0.0
2015-May-23 04:31N 35°30' E 139°46'6 5.8
2015-May-23 03:34N 35°25' E 139°46'8 8.2
2015-May-23 02:32N 35°19' E 139°39'0 0.0
2015-May-23 01:32N 35°19' E 139°39'0 0.0
2015-May-23 00:32N 35°19' E 139°39'0 0.0
2015-May-22 23:32N 35°19' E 139°39'3 2.9
2015-May-22 22:34N 35°19' E 139°42'1110.7
2015-May-22 21:34N 35°08' E 139°46'2114.3
2015-May-22 20:07N 34°54' E 139°28'915.4
2015-May-22 19:33N 34°49' E 139°19'22115.7
2015-May-22 05:27N 33°56' E 134°59'1719.2
2015-May-22 04:33N 34°13' E 134°59'1818.0
2015-May-22 03:33N 34°29' E 135°09'1211.9
2015-May-22 02:33N 34°41' E 135°13'0 0.0
2015-May-22 01:25N 34°41' E 135°13'0 0.0
2015-May-22 00:31N 34°41' E 135°13'0 0.0
2015-May-21 23:31N 34°41' E 135°13'1 1.4
2015-May-21 22:33N 34°40' E 135°15'4 3.5
2015-May-21 21:30N 34°37' E 135°16'0 0.0
2015-May-21 20:30N 34°37' E 135°16'0 0.0
2015-May-21 19:30N 34°37' E 135°16'0 0.0
2015-May-21 18:30N 34°37' E 135°16'0 0.0
2015-May-21 17:30N 34°37' E 135°16'0 0.0
2015-May-21 16:30N 34°37' E 135°16'0 0.0
2015-May-21 15:30N 34°37' E 135°16'0 0.0
2015-May-21 14:30N 34°37' E 135°16'0 0.0
2015-May-21 13:18N 34°37' E 135°16'0 0.0
2015-May-21 12:30N 34°37' E 135°16'0 0.0
2015-May-21 11:27N 34°37' E 135°16'0 0.0
2015-May-21 10:33N 34°37' E 135°16'0 0.0
2015-May-21 09:27N 34°37' E 135°16'0 0.0
2015-May-21 08:33N 34°37' E 135°16'0 0.0
2015-May-21 07:27N 34°37' E 135°16'1214.0
2015-May-21 06:34N 34°37' E 135°01'  
2015-May-18 04:31N 34°37' E 135°01'9 9.2
2015-May-18 03:33N 34°36' E 135°12'5 4.2
2015-May-18 02:28N 34°41' E 135°13'0 0.0
2015-May-18 01:10N 34°41' E 135°13'0 0.0
2015-May-18 00:22N 34°41' E 135°13'0 0.0
2015-May-17 23:28N 34°41' E 135°13'2 1.9
2015-May-17 22:33N 34°40' E 135°15'1313.2
2015-May-17 21:33N 34°28' E 135°09'1716.8
2015-May-17 20:33N 34°13' E 134°60'174 6.0
2015-May-16 15:29N 34°33' E 138°29'5315.9
2015-May-16 12:07N 34°58' E 139°26'1117.8
2015-May-16 11:31N 35°04' E 139°37'1414.4
2015-May-16 10:33N 35°15' E 139°46'1211.8
2015-May-16 09:34N 35°27' E 139°46'3 3.0
2015-May-16 08:31N 35°30' E 139°46'0 0.0
2015-May-16 07:31N 35°30' E 139°46'0 0.0
2015-May-16 06:31N 35°30' E 139°46'0 0.0
2015-May-16 05:31N 35°30' E 139°46'0 0.0
2015-May-16 04:33N 35°30' E 139°46'7 7.2
2015-May-16 03:33N 35°23' E 139°46'7 7.1
2015-May-16 02:33N 35°19' E 139°39'0 0.0
2015-May-16 01:33N 35°19' E 139°39'0 0.0
2015-May-16 00:33N 35°19' E 139°39'0 0.0
2015-May-15 23:33N 35°19' E 139°39'0 0.0
2015-May-15 22:33N 35°19' E 139°39'3 3.0
2015-May-15 21:34N 35°18' E 139°43'9 9.1
2015-May-15 20:33N 35°10' E 139°46'1515.4
2015-May-15 19:33N 34°58' E 139°34'23416.6
2015-May-15 05:29N 34°02' E 134°59'1818.9
2015-May-15 04:32N 34°20' E 134°59'1919.3
2015-May-15 03:33N 34°34' E 135°14'7 6.1
2015-May-15 02:28N 34°41' E 135°13'0 0.0
2015-May-15 01:28N 34°41' E 135°13'0 0.0
2015-May-15 00:28N 34°41' E 135°13'0 0.0
2015-May-14 23:28N 34°41' E 135°13'1 1.4
2015-May-14 22:33N 34°40' E 135°15'4 3.5
2015-May-14 21:30N 34°37' E 135°16'0 0.0
2015-May-14 20:33N 34°37' E 135°16'0 0.0
2015-May-14 19:24N 34°37' E 135°16'0 0.0
2015-May-14 18:18N 34°37' E 135°16'0 0.0
2015-May-14 17:33N 34°37' E 135°16'0 0.0
2015-May-14 16:30N 34°37' E 135°16'0 0.0
2015-May-14 15:24N 34°37' E 135°16'0 0.0
2015-May-14 14:30N 34°37' E 135°16'0 0.0
2015-May-14 13:30N 34°37' E 135°16'3 2.7
2015-May-14 12:33N 34°36' E 135°13'1818.4
2015-May-14 11:33N 34°34' E 134°51'  

Dump ship's entire track history